Time;durP1;ratioP1;P1;durP2;ratioP2;P2;SDS_P1;SDS_P2;PMS_P1;PMS_P2;Temp;Humidity;BMP_temperature;BMP_pressure;BME280_temperature;BME280_humidity;BME280_pressure;Samples;Min_cycle;Max_cycle;Signal;HPM_P1;HPM_P2
2022/09/01 00:00:10;;;;;;;11.65;7.75;;;;;;;16.95;84.16;94454.78;5134582;27;20300;-79
2022/09/01 00:02:37;;;;;;;11.63;7.18;;;;;;;16.95;84.26;94452.03;5134674;27;20663;-79
2022/09/01 00:05:06;;;;;;;11.13;7.93;;;;;;;16.93;84.58;94445.38;5134264;27;20221;-79
2022/09/01 00:07:34;;;;;;;14.13;8.45;;;;;;;16.94;85.09;94447.75;5134080;27;20269;-79
2022/09/01 00:10:04;;;;;;;12.90;8.18;;;;;;;16.98;85.49;94439.56;5134349;27;20201;-79
2022/09/01 00:12:31;;;;;;;13.60;8.32;;;;;;;16.86;86.62;94437.88;5134053;27;20612;-79
2022/09/01 00:14:59;;;;;;;13.40;9.00;;;;;;;16.81;86.82;94440.91;5134317;27;20201;-79
2022/09/01 00:17:27;;;;;;;14.38;8.35;;;;;;;16.88;86.12;94435.56;5134314;27;20245;-79
2022/09/01 00:19:54;;;;;;;14.55;9.60;;;;;;;16.82;86.71;94428.03;5133314;27;20201;-79
2022/09/01 00:22:20;;;;;;;14.55;8.95;;;;;;;16.81;86.91;94435.44;5134030;27;20245;-79
2022/09/01 00:24:47;;;;;;;14.85;9.55;;;;;;;16.74;87.78;94429.91;5133801;27;20601;-79
2022/09/01 00:27:15;;;;;;;13.07;9.63;;;;;;;16.56;89.50;94428.84;5133494;27;20695;-79
2022/09/01 00:29:42;;;;;;;16.00;10.10;;;;;;;16.51;90.31;94426.44;5128442;27;20205;-79
2022/09/01 00:32:10;;;;;;;14.88;9.95;;;;;;;16.46;91.79;94437.69;5113648;28;20205;-79
2022/09/01 00:34:37;;;;;;;15.27;9.75;;;;;;;16.32;92.50;94435.53;5113465;28;20674;-79
2022/09/01 00:37:04;;;;;;;17.77;10.68;;;;;;;16.19;93.63;94432.22;5113382;28;20201;-79
2022/09/01 00:39:31;;;;;;;14.23;9.48;;;;;;;16.04;94.88;94446.81;5113556;28;20456;-79
2022/09/01 00:41:58;;;;;;;15.93;9.65;;;;;;;16.06;95.38;94443.72;5113102;28;20205;-79
2022/09/01 00:44:26;;;;;;;13.82;9.98;;;;;;;16.15;95.06;94447.78;5113321;28;20213;-78
2022/09/01 00:46:55;;;;;;;15.27;9.52;;;;;;;16.19;93.97;94448.63;5120940;27;20570;-79
2022/09/01 00:49:28;;;;;;;14.07;9.43;;;;;;;16.18;93.88;94447.03;5133513;27;20391;-78
2022/09/01 00:52:01;;;;;;;14.68;9.63;;;;;;;16.17;93.76;94453.66;5132870;27;20189;-78
2022/09/01 00:54:35;;;;;;;15.32;10.45;;;;;;;16.25;93.74;94452.63;5133366;27;20651;-79
2022/09/01 00:57:04;;;;;;;16.73;10.60;;;;;;;16.27;93.08;94444.84;5133193;27;20253;-78
2022/09/01 00:59:32;;;;;;;17.65;9.77;;;;;;;16.09;96.51;94454.72;5132233;27;20208;-79
2022/09/01 01:01:59;;;;;;;17.40;10.52;;;;;;;16.03;97.91;94461.63;5132817;27;20233;-78
2022/09/01 01:04:29;;;;;;;16.90;10.98;;;;;;;15.92;98.79;94456.00;5133271;27;20205;-78
2022/09/01 01:07:00;;;;;;;18.15;10.88;;;;;;;15.85;98.87;94455.13;5132019;27;20260;-78
2022/09/01 01:09:31;;;;;;;15.82;10.55;;;;;;;15.91;98.80;94454.44;5131859;27;20269;-79
2022/09/01 01:11:59;;;;;;;17.45;10.55;;;;;;;15.90;99.19;94457.53;5133213;27;20276;-77
2022/09/01 01:14:30;;;;;;;17.33;9.93;;;;;;;15.81;99.07;94465.19;5132610;27;20665;-77
2022/09/01 01:16:58;;;;;;;20.55;10.82;;;;;;;15.75;99.22;94461.16;5132793;27;20189;-78
2022/09/01 01:25:17;;;;;;;14.23;9.80;;;;;;;15.91;98.73;94462.63;5132033;27;20188;-78
2022/09/01 01:27:45;;;;;;;16.50;10.63;;;;;;;15.95;98.31;94454.50;5132604;27;20296;-78
2022/09/01 01:30:13;;;;;;;16.70;10.55;;;;;;;15.99;98.05;94460.78;5122284;27;20761;-78
2022/09/01 01:32:41;;;;;;;20.23;11.13;;;;;;;15.98;97.76;94460.03;5111414;28;20243;-78
2022/09/01 01:35:12;;;;;;;15.68;10.13;;;;;;;16.00;97.55;94462.38;5111659;28;20660;-78
2022/09/01 01:37:39;;;;;;;18.23;10.45;;;;;;;16.14;97.15;94465.31;5112079;28;20602;-79
2022/09/01 01:40:14;;;;;;;17.70;9.88;;;;;;;16.29;96.20;94456.19;5111775;28;20209;-78
2022/09/01 01:42:44;;;;;;;18.00;11.55;;;;;;;16.16;96.25;94456.75;5111933;28;20228;-78
2022/09/01 01:45:15;;;;;;;16.42;9.70;;;;;;;16.20;95.18;94460.34;5111674;28;20182;-78
2022/09/01 01:47:46;;;;;;;16.92;10.05;;;;;;;16.12;94.80;94464.94;5126766;27;20238;-79
2022/09/01 01:50:14;;;;;;;18.02;9.73;;;;;;;16.10;93.79;94460.97;5132174;27;20181;-78
2022/09/01 01:52:41;;;;;;;17.55;9.52;;;;;;;16.07;93.59;94473.41;5131769;27;20190;-78
2022/09/01 01:55:11;;;;;;;14.20;9.10;;;;;;;16.00;93.86;94479.53;5131506;27;20205;-79
2022/09/01 01:57:39;;;;;;;15.65;9.52;;;;;;;15.95;94.08;94479.09;5131760;27;20683;-78
2022/09/01 02:00:10;;;;;;;25.80;10.45;;;;;;;15.95;93.92;94473.63;5132156;27;20265;-79
2022/09/01 02:02:38;;;;;;;16.60;9.85;;;;;;;15.96;93.65;94484.19;5131585;27;20230;-79
2022/09/01 02:05:06;;;;;;;17.13;9.50;;;;;;;15.92;93.57;94477.06;5132033;27;20197;-79
2022/09/01 02:07:33;;;;;;;15.18;9.70;;;;;;;15.90;93.19;94479.38;5131542;27;20622;-79
2022/09/01 02:10:00;;;;;;;16.38;9.57;;;;;;;15.92;93.33;94482.53;5132004;27;20204;-79
2022/09/01 02:12:27;;;;;;;15.75;9.27;;;;;;;15.88;93.30;94482.47;5131941;27;20207;-79
2022/09/01 02:14:54;;;;;;;17.25;9.85;;;;;;;15.85;93.69;94485.16;5131811;27;20199;-79
2022/09/01 02:17:25;;;;;;;14.48;9.00;;;;;;;15.86;93.53;94486.72;5131751;27;20287;-79
2022/09/01 02:19:56;;;;;;;14.38;9.57;;;;;;;15.85;93.49;94488.66;5131453;27;20185;-79
2022/09/01 02:22:23;;;;;;;13.57;9.13;;;;;;;15.82;94.19;94477.69;5131231;27;20265;-79
2022/09/01 02:24:52;;;;;;;15.27;10.15;;;;;;;15.79;94.41;94484.66;5130847;27;20200;-78
2022/09/01 02:27:28;;;;;;;18.40;10.20;;;;;;;15.83;94.21;94482.00;5130843;27;20228;-80
2022/09/01 02:29:57;;;;;;;16.58;10.07;;;;;;;15.86;93.49;94484.78;5123256;27;20574;-78
2022/09/01 02:32:25;;;;;;;15.45;10.05;;;;;;;15.86;93.19;94468.38;5109947;28;20258;-78
2022/09/01 02:35:00;;;;;;;15.02;9.98;;;;;;;15.86;92.99;94473.84;5110526;28;20194;-79
2022/09/01 02:37:28;;;;;;;15.95;9.27;;;;;;;15.82;93.05;94466.75;5111112;28;20189;-79
2022/09/01 02:39:56;;;;;;;14.90;8.90;;;;;;;15.83;92.90;94465.63;5110906;28;20202;-78
2022/09/01 02:42:26;;;;;;;17.33;10.55;;;;;;;15.79;92.90;94475.69;5110888;28;20309;-79
2022/09/01 02:44:54;;;;;;;14.00;9.57;;;;;;;15.67;93.87;94464.94;5110544;28;20281;-79
2022/09/01 02:47:22;;;;;;;14.30;9.35;;;;;;;15.66;93.92;94463.34;5122842;28;20305;-78
2022/09/01 02:49:50;;;;;;;13.40;9.27;;;;;;;15.61;94.47;94470.69;5131356;28;20201;-78
2022/09/01 02:52:19;;;;;;;16.23;9.85;;;;;;;15.51;94.21;94463.06;5131376;28;20283;-78
2022/09/01 02:54:47;;;;;;;14.15;8.98;;;;;;;15.56;95.11;94471.00;5130543;28;20254;-79
2022/09/01 02:57:15;;;;;;;15.85;9.48;;;;;;;15.55;94.86;94461.22;5130808;28;20200;-78
2022/09/01 02:59:43;;;;;;;13.18;8.88;;;;;;;15.58;94.91;94457.75;5131240;28;20209;-78
2022/09/01 03:02:10;;;;;;;15.80;9.73;;;;;;;15.56;95.06;94454.63;5130812;28;20680;-78
2022/09/01 03:04:37;;;;;;;19.20;9.88;;;;;;;15.51;95.07;94460.34;5130484;28;20605;-78
2022/09/01 03:07:07;;;;;;;17.63;9.40;;;;;;;15.51;95.07;94456.81;5130750;28;20250;-78
2022/09/01 03:09:35;;;;;;;13.20;8.93;;;;;;;15.53;94.59;94465.44;5131135;28;20277;-79
2022/09/01 03:12:06;;;;;;;17.05;10.55;;;;;;;15.57;93.74;94466.34;5130908;28;20201;-79
2022/09/01 03:14:33;;;;;;;19.50;9.52;;;;;;;15.63;93.22;94470.31;5130739;28;20652;-79
2022/09/01 03:17:00;;;;;;;15.35;9.18;;;;;;;15.52;93.01;94464.66;5130247;28;20250;-79
2022/09/01 03:19:35;;;;;;;16.08;10.10;;;;;;;15.49;92.85;94454.44;5130809;28;20247;-79
2022/09/01 03:22:03;;;;;;;17.02;9.25;;;;;;;15.36;93.25;94455.75;5130688;28;20242;-79
2022/09/01 03:24:31;;;;;;;14.30;9.48;;;;;;;15.34;94.04;94460.00;5130543;28;20571;-79
2022/09/01 03:26:59;;;;;;;16.83;9.82;;;;;;;15.46;93.38;94457.91;5130055;28;20201;-79
2022/09/01 03:29:26;;;;;;;14.57;9.27;;;;;;;15.51;92.30;94468.53;5127682;27;20221;-79
2022/09/01 03:31:53;;;;;;;15.00;9.32;;;;;;;15.49;91.92;94472.78;5110271;28;20586;-79
2022/09/01 03:34:20;;;;;;;14.48;8.85;;;;;;;15.44;91.60;94462.94;5112520;28;20537;-79
2022/09/01 03:36:49;;;;;;;14.77;8.95;;;;;;;15.43;91.57;94472.28;5113111;28;20198;-79
2022/09/01 03:39:18;;;;;;;14.48;9.20;;;;;;;15.51;91.10;94474.00;5114035;28;20289;-79
2022/09/01 03:41:46;;;;;;;12.45;8.85;;;;;;;15.48;90.66;94466.53;5113724;28;20620;-79
2022/09/01 03:44:15;;;;;;;15.38;8.95;;;;;;;15.49;90.82;94473.56;5113866;28;20233;-80
2022/09/01 03:46:43;;;;;;;13.55;9.30;;;;;;;15.46;90.71;94479.72;5120712;27;20317;-79
2022/09/01 03:49:14;;;;;;;17.33;9.15;;;;;;;15.53;90.60;94479.88;5133631;27;20213;-79
2022/09/01 03:51:41;;;;;;;15.23;9.55;;;;;;;15.62;90.14;94475.00;5133844;27;20185;-79
2022/09/01 03:54:08;;;;;;;15.73;8.75;;;;;;;15.64;89.97;94466.44;5133520;27;20408;-79
2022/09/01 03:56:37;;;;;;;14.40;10.05;;;;;;;15.66;89.86;94466.09;5134261;27;20455;-79
2022/09/01 03:59:05;;;;;;;15.32;9.98;;;;;;;15.69;90.07;94462.63;5134231;27;20654;-79
2022/09/01 04:01:33;;;;;;;19.48;9.63;;;;;;;15.72;89.84;94461.88;5133916;27;20196;-79
2022/09/01 04:04:00;;;;;;;17.00;9.48;;;;;;;15.78;90.06;94468.63;5134541;27;20224;-79
2022/09/01 04:06:29;;;;;;;15.38;9.68;;;;;;;15.92;89.23;94466.16;5133641;27;20201;-79
2022/09/01 04:09:01;;;;;;;14.90;9.13;;;;;;;15.78;89.13;94474.09;5134258;27;20228;-79
2022/09/01 04:11:29;;;;;;;15.80;10.20;;;;;;;15.74;91.10;94467.78;5134136;27;20280;-80
2022/09/01 04:13:56;;;;;;;20.80;10.63;;;;;;;15.82;90.26;94472.22;5134270;27;20205;-79
2022/09/01 04:19:18;;;;;;;19.40;10.15;;;;;;;16.10;89.12;94472.69;5134220;27;20299;-79
2022/09/01 04:21:46;;;;;;;19.05;10.55;;;;;;;16.31;89.02;94466.75;5133168;27;20372;-79
2022/09/01 04:24:14;;;;;;;18.58;10.00;;;;;;;16.40;88.22;94475.47;5133749;27;20213;-79
2022/09/01 04:26:41;;;;;;;17.80;10.13;;;;;;;16.50;87.51;94465.88;5133242;27;20193;-79
2022/09/01 04:29:10;;;;;;;22.70;11.68;;;;;;;16.46;88.48;94456.81;5132683;27;20224;-79
2022/09/01 04:31:39;;;;;;;21.95;13.05;;;;;;;16.63;88.51;94464.53;5112753;28;20632;-80
2022/09/01 04:34:12;;;;;;;20.83;11.88;;;;;;;16.62;88.26;94460.19;5113194;28;20205;-79
2022/09/01 04:36:42;;;;;;;18.33;10.20;;;;;;;16.74;87.48;94462.72;5112569;28;20415;-79
2022/09/01 04:39:11;;;;;;;18.23;11.65;;;;;;;16.86;87.34;94462.50;5112441;28;20672;-79
2022/09/01 04:41:43;;;;;;;22.02;11.50;;;;;;;16.92;87.18;94463.75;5112585;28;20629;-79
2022/09/01 04:44:10;;;;;;;24.55;10.63;;;;;;;16.95;86.65;94464.94;5112905;28;20221;-79
2022/09/01 04:46:45;;;;;;;21.25;11.20;;;;;;;16.97;87.23;94468.09;5118796;27;20209;-78
2022/09/01 04:49:14;;;;;;;18.80;10.98;;;;;;;16.96;86.93;94459.09;5133290;27;20208;-79
2022/09/01 04:51:43;;;;;;;15.93;10.93;;;;;;;17.05;86.91;94470.56;5132864;27;20207;-80
2022/09/01 04:54:13;;;;;;;16.85;10.32;;;;;;;16.99;86.98;94463.81;5132911;27;20204;-80
2022/09/01 04:56:42;;;;;;;15.10;10.30;;;;;;;17.11;86.65;94459.28;5132514;27;20250;-79
2022/09/01 04:59:09;;;;;;;21.38;10.93;;;;;;;17.51;85.44;94459.34;5132660;27;20213;-79
2022/09/01 05:01:43;;;;;;;15.15;10.52;;;;;;;17.97;84.09;94453.53;5132571;27;20672;-80
2022/09/01 05:04:13;;;;;;;18.40;10.00;;;;;;;18.92;80.72;94447.94;5133237;27;20181;-79
2022/09/01 05:06:41;;;;;;;19.50;10.07;;;;;;;20.44;75.07;94452.25;5132853;27;20588;-80
2022/09/01 05:09:09;;;;;;;15.32;10.23;;;;;;;20.72;73.11;94448.66;5132491;27;20644;-78
2022/09/01 05:11:37;;;;;;;14.45;8.95;;;;;;;22.20;67.02;94454.69;5132533;27;20288;-78
2022/09/01 05:14:05;;;;;;;25.23;9.88;;;;;;;22.50;65.09;94443.78;5132294;27;20204;-78
2022/09/01 05:16:34;;;;;;;19.75;10.55;;;;;;;22.55;65.58;94446.09;5132404;27;20257;-79
2022/09/01 05:19:04;;;;;;;27.63;10.93;;;;;;;23.28;63.60;94437.47;5132839;27;20219;-78
2022/09/01 05:21:31;;;;;;;21.50;10.75;;;;;;;23.68;61.49;94435.78;5132571;27;20201;-79
2022/09/01 05:23:59;;;;;;;22.77;10.50;;;;;;;24.55;58.73;94433.31;5132728;27;20200;-79
2022/09/01 05:26:30;;;;;;;21.67;11.43;;;;;;;24.89;57.53;94430.31;5132753;27;20215;-79
2022/09/01 05:29:01;;;;;;;22.85;11.60;;;;;;;23.63;59.55;94435.50;5132008;27;20726;-79
2022/09/01 05:31:36;;;;;;;18.67;10.98;;;;;;;23.03;61.77;94429.47;5111517;28;20182;-79
2022/09/01 05:34:08;;;;;;;19.90;12.02;;;;;;;23.81;59.60;94432.47;5111832;28;20632;-79
2022/09/01 05:36:36;;;;;;;14.68;10.30;;;;;;;23.53;59.40;94433.63;5111417;28;20284;-77
2022/09/01 05:39:05;;;;;;;20.35;11.25;;;;;;;23.25;60.72;94424.47;5111202;28;20266;-79
2022/09/01 05:41:34;;;;;;;19.92;11.90;;;;;;;23.85;59.51;94420.16;5111620;28;20656;-79
2022/09/01 05:44:05;;;;;;;19.10;13.55;;;;;;;24.30;58.44;94428.19;5111589;28;20224;-80
2022/09/01 05:46:32;;;;;;;18.67;12.93;;;;;;;24.20;57.70;94423.56;5116817;27;20699;-78
2022/09/01 05:49:00;;;;;;;14.75;11.00;;;;;;;24.82;56.08;94420.16;5132323;27;20259;-79
2022/09/01 05:51:35;;;;;;;14.50;10.05;;;;;;;24.67;55.05;94425.16;5131751;27;20208;-80
2022/09/01 05:54:03;;;;;;;12.55;8.20;;;;;;;24.62;55.70;94433.97;5131786;27;20180;-80
2022/09/01 05:56:32;;;;;;;13.88;8.25;;;;;;;24.33;55.02;94432.88;5130942;27;20193;-79
2022/09/01 05:59:01;;;;;;;10.13;7.88;;;;;;;24.52;55.12;94440.47;5131266;27;20687;-79
2022/09/01 06:01:32;;;;;;;12.43;8.10;;;;;;;24.56;54.87;94435.66;5131117;27;20207;-80
2022/09/01 06:04:04;;;;;;;12.18;9.32;;;;;;;25.72;52.80;94431.84;5131845;27;20193;-80
2022/09/01 06:06:37;;;;;;;13.65;9.50;;;;;;;26.43;51.42;94418.34;5131060;27;20556;-80
2022/09/01 06:09:05;;;;;;;15.18;10.68;;;;;;;24.95;53.64;94423.13;5131438;27;20264;-79
2022/09/01 06:11:32;;;;;;;11.75;10.07;;;;;;;24.67;54.70;94419.63;5131395;27;20245;-79
2022/09/01 06:14:00;;;;;;;11.25;9.70;;;;;;;26.61;50.66;94418.69;5131678;27;20208;-80
2022/09/01 06:16:28;;;;;;;15.45;10.02;;;;;;;27.76;47.71;94414.38;5131293;27;20201;-78
2022/09/01 06:18:56;;;;;;;12.27;10.90;;;;;;;27.38;48.79;94412.25;5130823;27;20193;-80
2022/09/01 06:21:23;;;;;;;15.20;11.45;;;;;;;26.50;49.88;94418.19;5130994;27;20291;-80
2022/09/01 06:23:53;;;;;;;13.20;10.35;;;;;;;27.93;47.89;94410.28;5130624;27;20326;-81
2022/09/01 06:26:25;;;;;;;11.80;9.80;;;;;;;28.60;45.72;94401.78;5131401;27;20200;-80
2022/09/01 06:28:53;;;;;;;17.63;12.35;;;;;;;28.61;46.32;94409.69;5130688;27;20228;-80
2022/09/01 06:31:22;;;;;;;22.30;14.82;;;;;;;27.19;49.71;94413.22;5112247;27;20219;-78
2022/09/01 06:33:51;;;;;;;24.13;15.18;;;;;;;26.59;51.12;94415.56;5110433;28;20292;-79
2022/09/01 06:36:20;;;;;;;23.58;15.25;;;;;;;26.50;51.92;94418.97;5110989;28;20205;-78
2022/09/01 06:38:46;;;;;;;21.67;15.82;;;;;;;25.63;53.66;94417.00;5110828;28;20229;-79
2022/09/01 06:41:15;;;;;;;23.13;16.25;;;;;;;25.07;55.54;94414.94;5110024;28;20649;-79
2022/09/01 06:43:42;;;;;;;23.75;16.48;;;;;;;24.52;57.65;94410.00;5110528;28;20221;-80
2022/09/01 06:46:09;;;;;;;21.52;15.77;;;;;;;24.38;57.23;94415.78;5112730;28;20197;-79
2022/09/01 06:48:38;;;;;;;25.42;17.38;;;;;;;24.93;57.02;94411.63;5130975;28;20442;-79
2022/09/01 06:51:08;;;;;;;24.33;16.30;;;;;;;24.74;57.36;94411.19;5131158;28;20742;-79
2022/09/01 06:53:35;;;;;;;24.17;15.93;;;;;;;25.42;56.11;94413.44;5130914;28;20528;-79
2022/09/01 06:56:02;;;;;;;24.13;16.48;;;;;;;25.20;55.32;94406.78;5131285;28;20205;-80
2022/09/01 06:58:31;;;;;;;23.77;16.83;;;;;;;25.97;53.91;94414.66;5131697;28;20284;-79
2022/09/01 07:00:58;;;;;;;25.52;17.38;;;;;;;26.08;53.83;94415.19;5131110;28;20209;-80
2022/09/01 07:03:26;;;;;;;24.60;15.90;;;;;;;27.11;51.09;94411.84;5130550;28;20258;-79
2022/09/01 07:05:55;;;;;;;27.05;16.40;;;;;;;27.31;50.70;94412.47;5130859;28;20197;-80
2022/09/01 07:08:23;;;;;;;21.48;15.82;;;;;;;27.30;50.19;94410.13;5131605;27;20699;-79
2022/09/01 07:10:52;;;;;;;23.13;16.20;;;;;;;27.39;50.40;94408.25;5135055;27;20621;-79
2022/09/01 07:13:24;;;;;;;29.48;18.02;;;;;;;27.32;50.89;94405.69;5134920;27;20207;-80
2022/09/01 07:15:54;;;;;;;29.67;17.48;;;;;;;26.43;52.75;94407.25;5135368;27;20192;-79
2022/09/01 07:18:24;;;;;;;25.17;17.17;;;;;;;26.24;53.55;94411.63;5134888;27;20288;-79
2022/09/01 07:20:51;;;;;;;26.90;18.08;;;;;;;26.33;53.51;94413.84;5134739;27;20201;-81
2022/09/01 07:23:19;;;;;;;31.08;17.50;;;;;;;26.72;53.24;94419.19;5134787;27;20223;-80
2022/09/01 07:25:54;;;;;;;29.65;18.92;;;;;;;26.10;53.85;94417.56;5134731;27;20296;-81
2022/09/01 07:28:23;;;;;;;29.25;17.52;;;;;;;26.24;53.76;94416.44;5134826;27;20251;-81
2022/09/01 07:30:52;;;;;;;28.85;18.15;;;;;;;26.36;53.29;94418.53;5119598;27;20222;-81
2022/09/01 07:33:23;;;;;;;26.45;18.02;;;;;;;26.39;52.98;94409.31;5114308;28;20678;-80
2022/09/01 07:35:52;;;;;;;27.48;18.52;;;;;;;26.69;52.06;94408.94;5113834;28;20198;-81
2022/09/01 07:38:19;;;;;;;26.20;17.80;;;;;;;26.82;51.75;94401.47;5114245;28;20229;-79
2022/09/01 07:40:47;;;;;;;26.23;17.35;;;;;;;26.71;52.20;94400.97;5114339;28;20288;-81
2022/09/01 07:43:21;;;;;;;22.70;16.90;;;;;;;25.91;54.01;94410.84;5113404;28;20237;-78
2022/09/01 07:45:49;;;;;;;23.88;17.58;;;;;;;25.37;55.86;94422.28;5113875;28;20196;-81
2022/09/01 07:48:20;;;;;;;25.60;16.88;;;;;;;26.14;54.28;94407.91;5134031;27;20277;-80
2022/09/01 07:50:51;;;;;;;21.80;16.42;;;;;;;26.86;52.74;94409.72;5134515;27;20303;-81
2022/09/01 07:53:21;;;;;;;24.80;17.67;;;;;;;27.64;50.77;94404.00;5134739;27;20185;-80
2022/09/01 07:55:49;;;;;;;28.75;16.75;;;;;;;27.36;50.63;94400.78;5134308;27;20197;-79
2022/09/01 07:58:18;;;;;;;20.95;16.55;;;;;;;26.59;52.96;94412.78;5134148;27;20200;-79
2022/09/01 08:00:46;;;;;;;26.48;17.08;;;;;;;25.96;53.49;94418.66;5133653;27;20205;-78
2022/09/01 08:03:13;;;;;;;24.40;16.67;;;;;;;25.80;54.47;94422.19;5134241;27;20193;-80
2022/09/01 08:05:42;;;;;;;21.42;15.25;;;;;;;26.00;54.18;94419.34;5133743;27;20200;-81
2022/09/01 08:08:09;;;;;;;19.55;13.93;;;;;;;26.27;53.77;94412.75;5133865;27;20721;-80
2022/09/01 08:10:38;;;;;;;21.02;14.55;;;;;;;26.42;52.89;94416.78;5133729;27;20281;-80
2022/09/01 08:13:05;;;;;;;21.50;15.20;;;;;;;26.24;54.36;94408.09;5133753;27;20193;-80
2022/09/01 08:15:32;;;;;;;23.60;16.92;;;;;;;24.82;57.15;94416.59;5133337;27;20201;-78
2022/09/01 08:17:59;;;;;;;23.50;17.27;;;;;;;25.44;56.10;94411.03;5133762;27;20468;-80
2022/09/01 08:20:26;;;;;;;26.92;16.73;;;;;;;25.32;56.07;94408.13;5133766;27;20246;-80
2022/09/01 08:22:55;;;;;;;22.17;16.42;;;;;;;25.27;56.44;94403.09;5133875;27;20401;-79
2022/09/01 08:25:22;;;;;;;23.52;15.60;;;;;;;24.86;57.55;94414.56;5133631;27;20600;-77
2022/09/01 08:27:48;;;;;;;24.00;16.83;;;;;;;24.93;57.11;94408.88;5133584;27;20250;-80
2022/09/01 08:30:15;;;;;;;23.98;17.27;;;;;;;25.19;56.55;94399.66;5123260;27;20229;-80
2022/09/01 08:32:43;;;;;;;38.85;17.10;;;;;;;25.70;55.82;94400.19;5112759;28;20198;-79
2022/09/01 08:35:10;;;;;;;25.60;16.77;;;;;;;25.65;55.16;94392.41;5112953;28;20201;-79
2022/09/01 08:37:37;;;;;;;26.77;16.70;;;;;;;25.23;56.28;94394.84;5112498;28;20221;-79
2022/09/01 08:40:07;;;;;;;22.40;16.77;;;;;;;24.83;56.90;94396.00;5113217;28;20205;-80
2022/09/01 08:42:52;;;;;;;24.23;16.63;;;;;;;25.27;55.85;94395.56;5112806;28;20229;-80
2022/09/01 08:45:23;;;;;;;24.20;15.57;;;;;;;26.07;56.07;94396.19;5112687;28;20201;-80
2022/09/01 08:47:54;;;;;;;21.15;14.88;;;;;;;26.13;55.10;94394.44;5128621;27;20301;-80
2022/09/01 08:50:21;;;;;;;26.63;16.67;;;;;;;26.05;53.88;94391.06;5132926;27;20316;-79
2022/09/01 08:52:55;;;;;;;29.05;17.23;;;;;;;25.59;54.74;94391.31;5132272;27;20201;-79
2022/09/01 08:55:28;;;;;;;25.75;16.80;;;;;;;25.23;57.51;94389.28;5133211;27;20273;-79
2022/09/01 08:57:57;;;;;;;22.23;15.25;;;;;;;25.47;54.83;94382.44;5132698;27;20196;-78
2022/09/01 09:00:30;;;;;;;24.35;16.60;;;;;;;25.33;54.37;94377.19;5133100;27;20196;-79
2022/09/01 09:03:06;;;;;;;24.48;15.20;;;;;;;25.22;56.08;94376.63;5132507;27;20189;-79
2022/09/01 09:05:49;;;;;;;24.98;16.80;;;;;;;25.46;55.61;94375.31;5132931;27;20189;-77
2022/09/01 09:08:43;;;;;;;21.17;15.90;;;;;;;25.74;55.63;94362.84;5132195;27;20250;-78
2022/09/01 09:11:27;;;;;;;26.48;16.38;;;;;;;25.68;54.47;94372.13;5132847;27;20289;-79
2022/09/01 09:14:04;;;;;;;23.13;15.23;;;;;;;25.67;54.31;94362.22;5132603;27;20540;-79
2022/09/01 09:16:36;;;;;;;19.85;14.45;;;;;;;25.45;54.74;94370.97;5132026;27;20253;-80
2022/09/01 09:19:09;;;;;;;22.63;14.95;;;;;;;25.86;53.58;94358.59;5132824;27;20200;-79
2022/09/01 09:21:38;;;;;;;20.23;14.60;;;;;;;25.81;53.13;94361.91;5132654;27;20201;-81
2022/09/01 09:24:11;;;;;;;19.88;13.73;;;;;;;25.81;54.52;94361.91;5132877;27;20327;-80
2022/09/01 09:26:39;;;;;;;25.13;14.20;;;;;;;26.01;52.06;94354.28;5132285;27;20205;-79
2022/09/01 09:29:06;;;;;;;21.90;13.30;;;;;;;26.63;52.16;94346.00;5132364;27;20273;-80
2022/09/01 09:31:36;;;;;;;18.73;12.40;;;;;;;26.56;51.57;94352.53;5110735;28;20999;-79
2022/09/01 09:34:03;;;;;;;22.27;13.02;;;;;;;26.48;50.09;94348.38;5111638;28;20189;-80
2022/09/01 09:36:33;;;;;;;20.92;13.50;;;;;;;26.44;50.87;94344.91;5111865;28;20198;-79
2022/09/01 09:39:06;;;;;;;16.77;12.85;;;;;;;26.68;50.18;94343.47;5111654;28;20186;-80
2022/09/01 09:41:33;;;;;;;21.75;13.60;;;;;;;26.83;49.85;94339.09;5112271;28;20213;-80
2022/09/01 09:44:05;;;;;;;22.35;13.23;;;;;;;27.29;49.19;94328.69;5111623;28;20657;-80
2022/09/01 09:46:37;;;;;;;20.80;14.38;;;;;;;27.07;49.70;94324.94;5116982;27;20193;-80
2022/09/01 09:49:10;;;;;;;19.77;14.20;;;;;;;26.73;50.32;94342.16;5131763;27;20189;-79
2022/09/01 09:51:38;;;;;;;21.25;14.32;;;;;;;26.88;49.50;94338.56;5131302;27;20281;-81
2022/09/01 09:54:14;;;;;;;20.17;13.13;;;;;;;27.43;48.63;94321.91;5131300;27;20224;-80
2022/09/01 09:56:43;;;;;;;21.38;13.25;;;;;;;27.12;49.93;94329.97;5131716;27;20253;-79
2022/09/01 09:59:24;;;;;;;17.75;12.32;;;;;;;26.64;50.80;94330.91;5131746;27;20704;-82
2022/09/01 10:01:52;;;;;;;21.38;11.50;;;;;;;26.38;52.79;94333.53;5131687;27;20700;-79
2022/09/01 10:04:36;;;;;;;20.75;11.27;;;;;;;26.08;51.61;94342.22;5131329;27;20628;-79
2022/09/01 10:07:24;;;;;;;20.27;11.93;;;;;;;25.69;53.18;94343.16;5131746;27;20201;-80
2022/09/01 10:09:51;;;;;;;19.58;12.75;;;;;;;25.89;52.01;94341.09;5131389;27;20215;-79
2022/09/01 10:12:18;;;;;;;17.50;12.05;;;;;;;25.94;52.32;94332.25;5130863;27;20623;-78
2022/09/01 10:14:51;;;;;;;15.65;11.27;;;;;;;26.04;52.04;94336.75;5131309;27;20245;-81
2022/09/01 10:17:23;;;;;;;14.45;11.68;;;;;;;26.05;52.55;94338.31;5131929;27;20181;-81
2022/09/01 10:19:54;;;;;;;16.90;11.60;;;;;;;26.13;51.83;94331.38;5131477;27;20189;-81
2022/09/01 10:22:23;;;;;;;15.20;11.40;;;;;;;25.72;52.34;94331.19;5131748;27;20207;-81
2022/09/01 10:24:50;;;;;;;16.40;11.57;;;;;;;25.54;53.87;94333.56;5131887;27;20196;-81
2022/09/01 10:27:20;;;;;;;18.05;12.05;;;;;;;25.34;53.77;94323.28;5131445;27;20242;-81
2022/09/01 10:29:53;;;;;;;17.67;11.18;;;;;;;25.25;54.85;94323.09;5125720;27;20449;-81
2022/09/01 10:32:25;;;;;;;20.30;12.68;;;;;;;25.07;55.10;94325.47;5111388;28;20190;-81
2022/09/01 10:34:54;;;;;;;18.45;12.50;;;;;;;25.25;54.83;94320.31;5110772;28;20194;-81
2022/09/01 10:37:23;;;;;;;24.40;12.70;;;;;;;25.44;55.25;94322.25;5110684;28;20198;-81
2022/09/01 10:40:19;;;;;;;22.73;11.52;;;;;;;25.70;53.49;94323.28;5110891;28;20201;-81
2022/09/01 10:42:54;;;;;;;21.50;11.27;;;;;;;26.03;53.32;94324.09;5110006;28;20692;-81
2022/09/01 10:45:32;;;;;;;16.88;11.55;;;;;;;25.88;51.91;94322.88;5110547;28;20196;-80
2022/09/01 10:48:26;;;;;;;16.10;11.65;;;;;;;25.83;53.49;94331.72;5128010;28;20243;-80
2022/09/01 10:51:13;;;;;;;14.63;11.80;;;;;;;26.04;52.55;94322.09;5130807;28;20268;-81
2022/09/01 10:53:42;;;;;;;31.70;12.38;;;;;;;26.06;52.09;94305.78;5131438;28;20181;-81
2022/09/01 10:56:15;;;;;;;32.85;15.52;;;;;;;26.29;52.27;94304.81;5131623;28;20226;-81
2022/09/01 10:59:03;;;;;;;16.90;11.60;;;;;;;26.24;50.18;94305.34;5131221;28;20268;-81
2022/09/01 11:02:08;;;;;;;13.57;11.77;;;;;;;26.31;51.25;94305.16;5131441;28;20225;-79
2022/09/01 11:05:09;;;;;;;17.40;10.13;;;;;;;26.60;51.73;94294.88;5117665;28;20260;-80
2022/09/01 11:07:37;;;;;;;17.00;11.38;;;;;;;26.41;51.58;94293.00;5124768;27;20224;-79
2022/09/01 11:10:18;;;;;;;19.27;11.45;;;;;;;26.79;49.41;94291.13;5130831;28;20567;-79
2022/09/01 11:13:07;;;;;;;17.73;11.60;;;;;;;26.87;48.72;94286.94;5130096;28;20189;-79
2022/09/01 11:15:38;;;;;;;17.13;10.40;;;;;;;27.40;47.56;94290.19;5130561;28;20643;-81
2022/09/01 11:18:14;;;;;;;20.23;10.00;;;;;;;27.38;47.32;94284.28;5130015;28;20671;-79
2022/09/01 11:20:43;;;;;;;18.45;10.82;;;;;;;27.78;46.33;94281.06;5129933;28;20193;-79
2022/09/01 11:23:13;;;;;;;18.85;10.52;;;;;;;28.16;46.13;94281.78;5130243;28;20193;-78
2022/09/01 11:25:45;;;;;;;13.55;10.68;;;;;;;28.30;44.97;94272.97;5130964;28;20257;-81
2022/09/01 11:28:44;;;;;;;15.52;10.07;;;;;;;28.00;45.41;94276.38;5130745;27;20223;-80
2022/09/01 11:31:20;;;;;;;14.77;10.40;;;;;;;28.05;44.75;94273.00;5112788;28;20245;-80
2022/09/01 11:34:13;;;;;;;16.42;10.07;;;;;;;28.19;44.13;94267.00;5110306;28;20250;-80
2022/09/01 11:36:59;;;;;;;16.42;10.63;;;;;;;28.37;44.15;94268.41;5109627;28;20501;-81
2022/09/01 11:39:42;;;;;;;17.40;10.90;;;;;;;28.82;43.53;94268.78;5110323;28;20321;-80
2022/09/01 11:42:19;;;;;;;14.63;10.75;;;;;;;28.72;44.30;94252.41;5107741;28;20714;-81